sensor_id;sensor_type;location;lat;lon;timestamp;P1;durP1;ratioP1;P2;durP2;ratioP2
22111;SDS011;11222;50.872;4.312;2023-03-31T00:01:29;14.48;;;4.53;;
22111;SDS011;11222;50.872;4.312;2023-03-31T00:03:58;13.95;;;4.03;;
22111;SDS011;11222;50.872;4.312;2023-03-31T00:06:34;20.42;;;4.63;;
22111;SDS011;11222;50.872;4.312;2023-03-31T00:09:05;14.88;;;3.90;;
22111;SDS011;11222;50.872;4.312;2023-03-31T00:11:33;18.70;;;4.32;;
22111;SDS011;11222;50.872;4.312;2023-03-31T00:13:58;11.90;;;3.67;;
22111;SDS011;11222;50.872;4.312;2023-03-31T00:16:24;13.00;;;3.83;;
22111;SDS011;11222;50.872;4.312;2023-03-31T00:18:50;14.70;;;3.67;;
22111;SDS011;11222;50.872;4.312;2023-03-31T00:21:20;14.65;;;3.85;;
22111;SDS011;11222;50.872;4.312;2023-03-31T00:23:51;18.48;;;4.95;;
22111;SDS011;11222;50.872;4.312;2023-03-31T00:26:17;16.52;;;3.47;;
22111;SDS011;11222;50.872;4.312;2023-03-31T00:28:43;16.55;;;3.70;;
22111;SDS011;11222;50.872;4.312;2023-03-31T00:31:09;30.77;;;4.13;;
22111;SDS011;11222;50.872;4.312;2023-03-31T00:33:35;14.00;;;2.85;;
22111;SDS011;11222;50.872;4.312;2023-03-31T00:36:00;11.40;;;3.15;;
22111;SDS011;11222;50.872;4.312;2023-03-31T00:38:30;14.25;;;3.25;;
22111;SDS011;11222;50.872;4.312;2023-03-31T00:40:56;16.48;;;3.90;;
22111;SDS011;11222;50.872;4.312;2023-03-31T00:43:27;13.23;;;3.03;;
22111;SDS011;11222;50.872;4.312;2023-03-31T00:46:02;10.82;;;2.90;;
22111;SDS011;11222;50.872;4.312;2023-03-31T00:48:44;12.75;;;2.70;;
22111;SDS011;11222;50.872;4.312;2023-03-31T00:51:13;12.57;;;2.63;;
22111;SDS011;11222;50.872;4.312;2023-03-31T00:53:39;11.70;;;3.13;;
22111;SDS011;11222;50.872;4.312;2023-03-31T00:56:08;15.07;;;3.20;;
22111;SDS011;11222;50.872;4.312;2023-03-31T00:58:38;14.55;;;2.80;;
22111;SDS011;11222;50.872;4.312;2023-03-31T01:01:07;17.60;;;3.50;;
22111;SDS011;11222;50.872;4.312;2023-03-31T01:03:38;18.15;;;4.47;;
22111;SDS011;11222;50.872;4.312;2023-03-31T01:06:06;17.92;;;4.28;;
22111;SDS011;11222;50.872;4.312;2023-03-31T01:08:34;16.75;;;4.28;;
22111;SDS011;11222;50.872;4.312;2023-03-31T01:11:03;16.63;;;3.92;;
22111;SDS011;11222;50.872;4.312;2023-03-31T01:13:31;19.58;;;4.93;;
22111;SDS011;11222;50.872;4.312;2023-03-31T01:16:00;21.33;;;4.45;;
22111;SDS011;11222;50.872;4.312;2023-03-31T01:18:26;14.90;;;4.88;;
22111;SDS011;11222;50.872;4.312;2023-03-31T01:26:48;16.73;;;4.20;;
22111;SDS011;11222;50.872;4.312;2023-03-31T01:50:46;15.02;;;3.33;;
22111;SDS011;11222;50.872;4.312;2023-03-31T01:53:20;16.02;;;3.15;;
22111;SDS011;11222;50.872;4.312;2023-03-31T01:58:46;12.35;;;3.08;;
22111;SDS011;11222;50.872;4.312;2023-03-31T02:01:35;13.70;;;3.05;;
22111;SDS011;11222;50.872;4.312;2023-03-31T02:04:30;13.73;;;3.22;;
22111;SDS011;11222;50.872;4.312;2023-03-31T02:07:03;13.45;;;2.90;;
22111;SDS011;11222;50.872;4.312;2023-03-31T02:09:37;12.65;;;3.00;;
22111;SDS011;11222;50.872;4.312;2023-03-31T02:12:07;9.15;;;2.35;;
22111;SDS011;11222;50.872;4.312;2023-03-31T02:14:36;7.05;;;2.58;;
22111;SDS011;11222;50.872;4.312;2023-03-31T02:17:07;6.57;;;2.88;;
22111;SDS011;11222;50.872;4.312;2023-03-31T02:19:39;6.25;;;2.28;;
22111;SDS011;11222;50.872;4.312;2023-03-31T02:22:07;7.32;;;2.58;;
22111;SDS011;11222;50.872;4.312;2023-03-31T02:24:34;13.23;;;2.42;;
22111;SDS011;11222;50.872;4.312;2023-03-31T02:29:33;8.75;;;2.38;;
22111;SDS011;11222;50.872;4.312;2023-03-31T02:34:35;13.50;;;2.50;;
22111;SDS011;11222;50.872;4.312;2023-03-31T02:37:01;7.72;;;2.63;;
22111;SDS011;11222;50.872;4.312;2023-03-31T02:39:28;9.75;;;2.80;;
22111;SDS011;11222;50.872;4.312;2023-03-31T02:41:57;9.95;;;2.50;;
22111;SDS011;11222;50.872;4.312;2023-03-31T02:44:23;11.93;;;2.75;;
22111;SDS011;11222;50.872;4.312;2023-03-31T02:46:49;6.00;;;2.20;;
22111;SDS011;11222;50.872;4.312;2023-03-31T02:49:15;8.13;;;2.40;;
22111;SDS011;11222;50.872;4.312;2023-03-31T03:05:18;8.48;;;2.70;;
22111;SDS011;11222;50.872;4.312;2023-03-31T03:13:08;13.85;;;2.92;;
22111;SDS011;11222;50.872;4.312;2023-03-31T03:15:44;8.93;;;2.55;;
22111;SDS011;11222;50.872;4.312;2023-03-31T03:18:13;14.10;;;3.40;;
22111;SDS011;11222;50.872;4.312;2023-03-31T03:20:43;9.95;;;2.65;;
22111;SDS011;11222;50.872;4.312;2023-03-31T03:23:13;9.68;;;2.50;;
22111;SDS011;11222;50.872;4.312;2023-03-31T03:25:40;9.07;;;2.42;;
22111;SDS011;11222;50.872;4.312;2023-03-31T03:28:05;8.38;;;2.70;;
22111;SDS011;11222;50.872;4.312;2023-03-31T03:30:31;13.38;;;2.50;;
22111;SDS011;11222;50.872;4.312;2023-03-31T03:32:57;9.70;;;2.33;;
22111;SDS011;11222;50.872;4.312;2023-03-31T03:35:23;7.57;;;2.30;;
22111;SDS011;11222;50.872;4.312;2023-03-31T03:37:49;5.55;;;1.88;;
22111;SDS011;11222;50.872;4.312;2023-03-31T03:40:14;3.92;;;1.80;;
22111;SDS011;11222;50.872;4.312;2023-03-31T03:42:40;3.53;;;1.67;;
22111;SDS011;11222;50.872;4.312;2023-03-31T03:45:07;3.95;;;1.70;;
22111;SDS011;11222;50.872;4.312;2023-03-31T03:47:33;4.40;;;1.67;;
22111;SDS011;11222;50.872;4.312;2023-03-31T03:50:00;3.38;;;1.42;;
22111;SDS011;11222;50.872;4.312;2023-03-31T03:52:26;3.33;;;1.30;;
22111;SDS011;11222;50.872;4.312;2023-03-31T03:54:52;2.70;;;1.42;;
22111;SDS011;11222;50.872;4.312;2023-03-31T03:57:17;3.35;;;1.75;;
22111;SDS011;11222;50.872;4.312;2023-03-31T03:59:43;4.95;;;1.40;;
22111;SDS011;11222;50.872;4.312;2023-03-31T04:02:09;2.83;;;1.20;;
22111;SDS011;11222;50.872;4.312;2023-03-31T04:04:35;2.67;;;1.08;;
22111;SDS011;11222;50.872;4.312;2023-03-31T04:07:00;4.13;;;1.20;;
22111;SDS011;11222;50.872;4.312;2023-03-31T04:09:26;1.88;;;1.13;;
22111;SDS011;11222;50.872;4.312;2023-03-31T04:11:52;2.08;;;0.98;;
22111;SDS011;11222;50.872;4.312;2023-03-31T04:14:18;2.28;;;1.10;;
22111;SDS011;11222;50.872;4.312;2023-03-31T04:16:44;1.52;;;1.17;;
22111;SDS011;11222;50.872;4.312;2023-03-31T04:19:11;0.80;;;0.80;;
22111;SDS011;11222;50.872;4.312;2023-03-31T04:21:38;1.83;;;1.10;;
22111;SDS011;11222;50.872;4.312;2023-03-31T04:24:09;3.40;;;1.17;;
22111;SDS011;11222;50.872;4.312;2023-03-31T04:26:45;4.63;;;1.42;;
22111;SDS011;11222;50.872;4.312;2023-03-31T04:29:14;2.72;;;1.42;;
22111;SDS011;11222;50.872;4.312;2023-03-31T04:31:41;7.03;;;2.00;;
22111;SDS011;11222;50.872;4.312;2023-03-31T04:34:08;4.40;;;1.90;;
22111;SDS011;11222;50.872;4.312;2023-03-31T04:36:37;4.85;;;2.30;;
22111;SDS011;11222;50.872;4.312;2023-03-31T04:39:11;8.15;;;2.30;;
22111;SDS011;11222;50.872;4.312;2023-03-31T04:41:37;5.25;;;2.45;;
22111;SDS011;11222;50.872;4.312;2023-03-31T04:44:03;7.32;;;2.50;;
22111;SDS011;11222;50.872;4.312;2023-03-31T04:46:29;8.23;;;3.03;;
22111;SDS011;11222;50.872;4.312;2023-03-31T04:48:55;9.15;;;2.95;;
22111;SDS011;11222;50.872;4.312;2023-03-31T04:51:22;8.43;;;2.72;;
22111;SDS011;11222;50.872;4.312;2023-03-31T04:53:48;10.25;;;2.78;;
22111;SDS011;11222;50.872;4.312;2023-03-31T04:56:14;12.20;;;3.08;;
22111;SDS011;11222;50.872;4.312;2023-03-31T04:58:40;15.88;;;3.17;;
22111;SDS011;11222;50.872;4.312;2023-03-31T05:01:05;13.77;;;3.38;;
22111;SDS011;11222;50.872;4.312;2023-03-31T05:03:31;12.18;;;3.25;;
22111;SDS011;11222;50.872;4.312;2023-03-31T05:05:57;8.98;;;3.67;;
22111;SDS011;11222;50.872;4.312;2023-03-31T05:08:23;13.90;;;3.30;;
22111;SDS011;11222;50.872;4.312;2023-03-31T05:10:48;13.52;;;3.30;;
22111;SDS011;11222;50.872;4.312;2023-03-31T05:13:14;17.17;;;4.22;;
22111;SDS011;11222;50.872;4.312;2023-03-31T05:15:40;13.32;;;3.55;;
22111;SDS011;11222;50.872;4.312;2023-03-31T05:18:07;15.07;;;4.53;;
22111;SDS011;11222;50.872;4.312;2023-03-31T05:20:33;13.50;;;3.63;;
22111;SDS011;11222;50.872;4.312;2023-03-31T05:22:58;14.15;;;4.30;;
22111;SDS011;11222;50.872;4.312;2023-03-31T05:25:24;15.43;;;4.50;;
22111;SDS011;11222;50.872;4.312;2023-03-31T05:27:53;18.27;;;4.57;;
22111;SDS011;11222;50.872;4.312;2023-03-31T05:30:18;15.57;;;4.60;;
22111;SDS011;11222;50.872;4.312;2023-03-31T05:32:44;14.68;;;4.57;;
22111;SDS011;11222;50.872;4.312;2023-03-31T05:35:10;15.68;;;3.63;;
22111;SDS011;11222;50.872;4.312;2023-03-31T05:37:36;17.25;;;4.18;;
22111;SDS011;11222;50.872;4.312;2023-03-31T05:40:01;12.93;;;3.85;;
22111;SDS011;11222;50.872;4.312;2023-03-31T05:42:30;11.35;;;3.50;;
22111;SDS011;11222;50.872;4.312;2023-03-31T05:44:56;17.00;;;3.60;;
22111;SDS011;11222;50.872;4.312;2023-03-31T05:47:22;11.52;;;3.40;;
22111;SDS011;11222;50.872;4.312;2023-03-31T05:49:48;12.75;;;3.13;;
22111;SDS011;11222;50.872;4.312;2023-03-31T05:52:13;14.85;;;3.78;;
22111;SDS011;11222;50.872;4.312;2023-03-31T05:54:39;12.38;;;3.42;;
22111;SDS011;11222;50.872;4.312;2023-03-31T05:57:06;14.02;;;3.15;;
22111;SDS011;11222;50.872;4.312;2023-03-31T05:59:33;16.98;;;3.58;;
22111;SDS011;11222;50.872;4.312;2023-03-31T06:01:59;17.00;;;4.05;;
22111;SDS011;11222;50.872;4.312;2023-03-31T06:04:26;13.68;;;3.72;;
22111;SDS011;11222;50.872;4.312;2023-03-31T06:06:51;14.40;;;3.75;;
22111;SDS011;11222;50.872;4.312;2023-03-31T06:09:18;16.30;;;4.47;;
22111;SDS011;11222;50.872;4.312;2023-03-31T06:11:44;16.63;;;4.07;;
22111;SDS011;11222;50.872;4.312;2023-03-31T06:14:11;16.20;;;4.13;;
22111;SDS011;11222;50.872;4.312;2023-03-31T06:16:37;15.63;;;4.15;;
22111;SDS011;11222;50.872;4.312;2023-03-31T06:19:03;18.63;;;4.10;;
22111;SDS011;11222;50.872;4.312;2023-03-31T06:21:29;17.50;;;4.57;;
22111;SDS011;11222;50.872;4.312;2023-03-31T06:23:54;13.93;;;3.78;;
22111;SDS011;11222;50.872;4.312;2023-03-31T06:26:22;19.00;;;4.80;;
22111;SDS011;11222;50.872;4.312;2023-03-31T06:28:48;11.13;;;3.90;;
22111;SDS011;11222;50.872;4.312;2023-03-31T06:31:18;13.63;;;4.10;;
22111;SDS011;11222;50.872;4.312;2023-03-31T06:33:46;15.65;;;4.35;;
22111;SDS011;11222;50.872;4.312;2023-03-31T06:36:13;19.85;;;4.70;;
22111;SDS011;11222;50.872;4.312;2023-03-31T06:38:40;17.27;;;4.80;;
22111;SDS011;11222;50.872;4.312;2023-03-31T06:41:06;16.52;;;4.78;;
22111;SDS011;11222;50.872;4.312;2023-03-31T06:43:33;18.58;;;4.28;;
22111;SDS011;11222;50.872;4.312;2023-03-31T06:45:59;14.48;;;5.00;;
22111;SDS011;11222;50.872;4.312;2023-03-31T06:48:25;18.30;;;4.68;;
22111;SDS011;11222;50.872;4.312;2023-03-31T06:50:52;15.40;;;4.72;;
22111;SDS011;11222;50.872;4.312;2023-03-31T06:53:18;14.93;;;4.97;;
22111;SDS011;11222;50.872;4.312;2023-03-31T06:55:44;19.58;;;5.10;;
22111;SDS011;11222;50.872;4.312;2023-03-31T06:58:10;19.20;;;4.97;;
22111;SDS011;11222;50.872;4.312;2023-03-31T07:00:36;23.27;;;5.38;;
22111;SDS011;11222;50.872;4.312;2023-03-31T07:03:02;17.15;;;5.43;;
22111;SDS011;11222;50.872;4.312;2023-03-31T07:05:29;16.85;;;5.22;;
22111;SDS011;11222;50.872;4.312;2023-03-31T07:07:56;17.08;;;5.18;;
22111;SDS011;11222;50.872;4.312;2023-03-31T07:10:23;20.85;;;4.95;;
22111;SDS011;11222;50.872;4.312;2023-03-31T07:12:50;14.23;;;4.57;;
22111;SDS011;11222;50.872;4.312;2023-03-31T07:15:16;17.05;;;4.50;;
22111;SDS011;11222;50.872;4.312;2023-03-31T07:17:42;19.92;;;4.47;;
22111;SDS011;11222;50.872;4.312;2023-03-31T07:20:09;20.85;;;5.38;;
22111;SDS011;11222;50.872;4.312;2023-03-31T07:22:42;18.67;;;4.65;;
22111;SDS011;11222;50.872;4.312;2023-03-31T07:25:10;18.77;;;5.70;;
22111;SDS011;11222;50.872;4.312;2023-03-31T07:27:38;15.80;;;4.45;;
22111;SDS011;11222;50.872;4.312;2023-03-31T07:30:07;15.88;;;4.68;;
22111;SDS011;11222;50.872;4.312;2023-03-31T07:32:34;18.50;;;4.97;;
22111;SDS011;11222;50.872;4.312;2023-03-31T07:35:04;17.90;;;4.38;;
22111;SDS011;11222;50.872;4.312;2023-03-31T07:37:34;18.30;;;4.43;;
22111;SDS011;11222;50.872;4.312;2023-03-31T07:40:01;18.85;;;4.55;;
22111;SDS011;11222;50.872;4.312;2023-03-31T07:42:29;18.85;;;4.28;;
22111;SDS011;11222;50.872;4.312;2023-03-31T07:44:55;16.33;;;4.25;;
22111;SDS011;11222;50.872;4.312;2023-03-31T07:47:20;18.80;;;3.95;;
22111;SDS011;11222;50.872;4.312;2023-03-31T07:49:46;16.50;;;3.78;;
22111;SDS011;11222;50.872;4.312;2023-03-31T07:52:12;18.45;;;3.95;;
22111;SDS011;11222;50.872;4.312;2023-03-31T07:54:39;22.05;;;4.13;;
22111;SDS011;11222;50.872;4.312;2023-03-31T07:57:05;18.98;;;4.18;;
22111;SDS011;11222;50.872;4.312;2023-03-31T07:59:33;16.75;;;3.67;;
22111;SDS011;11222;50.872;4.312;2023-03-31T08:01:58;17.10;;;4.57;;
22111;SDS011;11222;50.872;4.312;2023-03-31T08:04:24;13.23;;;4.32;;
22111;SDS011;11222;50.872;4.312;2023-03-31T08:06:50;22.88;;;4.90;;
22111;SDS011;11222;50.872;4.312;2023-03-31T08:09:16;14.90;;;3.92;;
22111;SDS011;11222;50.872;4.312;2023-03-31T08:11:42;21.38;;;4.00;;
22111;SDS011;11222;50.872;4.312;2023-03-31T08:14:08;16.40;;;3.72;;
22111;SDS011;11222;50.872;4.312;2023-03-31T08:16:34;17.55;;;3.60;;
22111;SDS011;11222;50.872;4.312;2023-03-31T08:19:00;24.73;;;4.55;;
22111;SDS011;11222;50.872;4.312;2023-03-31T08:21:27;17.73;;;4.07;;
22111;SDS011;11222;50.872;4.312;2023-03-31T08:23:54;17.17;;;4.30;;
22111;SDS011;11222;50.872;4.312;2023-03-31T08:26:20;19.33;;;4.20;;
22111;SDS011;11222;50.872;4.312;2023-03-31T08:28:48;20.38;;;4.28;;
22111;SDS011;11222;50.872;4.312;2023-03-31T08:31:14;15.23;;;3.78;;
22111;SDS011;11222;50.872;4.312;2023-03-31T08:33:42;16.63;;;4.35;;
22111;SDS011;11222;50.872;4.312;2023-03-31T08:36:08;22.65;;;4.55;;
22111;SDS011;11222;50.872;4.312;2023-03-31T08:38:38;16.85;;;4.53;;
22111;SDS011;11222;50.872;4.312;2023-03-31T08:41:18;15.60;;;3.95;;
22111;SDS011;11222;50.872;4.312;2023-03-31T08:43:57;17.77;;;3.22;;
22111;SDS011;11222;50.872;4.312;2023-03-31T08:46:26;21.77;;;4.55;;
22111;SDS011;11222;50.872;4.312;2023-03-31T08:48:56;12.93;;;3.70;;
22111;SDS011;11222;50.872;4.312;2023-03-31T08:52:10;18.30;;;4.40;;
22111;SDS011;11222;50.872;4.312;2023-03-31T08:57:05;16.55;;;3.80;;
22111;SDS011;11222;50.872;4.312;2023-03-31T08:59:55;16.23;;;4.30;;
22111;SDS011;11222;50.872;4.312;2023-03-31T09:05:04;19.75;;;4.50;;
22111;SDS011;11222;50.872;4.312;2023-03-31T09:18:28;24.05;;;5.28;;
22111;SDS011;11222;50.872;4.312;2023-03-31T09:26:47;20.25;;;5.45;;
22111;SDS011;11222;50.872;4.312;2023-03-31T09:29:33;20.85;;;5.05;;
22111;SDS011;11222;50.872;4.312;2023-03-31T09:32:15;21.63;;;4.75;;
22111;SDS011;11222;50.872;4.312;2023-03-31T09:34:43;21.23;;;5.38;;
22111;SDS011;11222;50.872;4.312;2023-03-31T09:37:11;22.48;;;5.13;;
22111;SDS011;11222;50.872;4.312;2023-03-31T09:39:38;26.13;;;4.75;;
22111;SDS011;11222;50.872;4.312;2023-03-31T09:42:04;19.63;;;4.93;;
22111;SDS011;11222;50.872;4.312;2023-03-31T09:44:38;23.58;;;5.22;;
22111;SDS011;11222;50.872;4.312;2023-03-31T09:47:54;18.85;;;5.20;;
22111;SDS011;11222;50.872;4.312;2023-03-31T09:50:06;20.85;;;5.28;;
22111;SDS011;11222;50.872;4.312;2023-03-31T09:52:34;19.85;;;4.50;;
22111;SDS011;11222;50.872;4.312;2023-03-31T09:55:12;19.65;;;4.68;;
22111;SDS011;11222;50.872;4.312;2023-03-31T09:57:39;19.67;;;5.20;;
22111;SDS011;11222;50.872;4.312;2023-03-31T10:02:52;25.75;;;5.40;;
22111;SDS011;11222;50.872;4.312;2023-03-31T10:05:30;23.63;;;5.25;;
22111;SDS011;11222;50.872;4.312;2023-03-31T10:10:35;25.00;;;5.47;;
22111;SDS011;11222;50.872;4.312;2023-03-31T10:13:00;21.10;;;5.00;;
22111;SDS011;11222;50.872;4.312;2023-03-31T10:15:35;18.52;;;5.43;;
22111;SDS011;11222;50.872;4.312;2023-03-31T10:18:02;22.90;;;4.95;;
22111;SDS011;11222;50.872;4.312;2023-03-31T10:20:37;17.90;;;4.57;;
22111;SDS011;11222;50.872;4.312;2023-03-31T10:23:18;15.23;;;4.80;;
22111;SDS011;11222;50.872;4.312;2023-03-31T10:25:47;26.60;;;5.15;;
22111;SDS011;11222;50.872;4.312;2023-03-31T10:28:17;25.92;;;5.45;;
22111;SDS011;11222;50.872;4.312;2023-03-31T10:30:49;28.33;;;5.43;;
22111;SDS011;11222;50.872;4.312;2023-03-31T10:33:23;18.50;;;5.10;;
22111;SDS011;11222;50.872;4.312;2023-03-31T10:35:55;14.30;;;4.32;;
22111;SDS011;11222;50.872;4.312;2023-03-31T10:38:27;24.92;;;4.65;;
22111;SDS011;11222;50.872;4.312;2023-03-31T10:40:58;20.40;;;4.78;;
22111;SDS011;11222;50.872;4.312;2023-03-31T10:45:59;22.75;;;4.97;;
22111;SDS011;11222;50.872;4.312;2023-03-31T10:48:26;19.30;;;4.53;;
22111;SDS011;11222;50.872;4.312;2023-03-31T10:50:52;18.83;;;4.28;;
22111;SDS011;11222;50.872;4.312;2023-03-31T10:53:22;17.80;;;3.90;;
22111;SDS011;11222;50.872;4.312;2023-03-31T10:58:39;16.17;;;3.65;;
22111;SDS011;11222;50.872;4.312;2023-03-31T11:01:30;16.92;;;3.90;;
22111;SDS011;11222;50.872;4.312;2023-03-31T11:13:06;16.23;;;3.55;;
22111;SDS011;11222;50.872;4.312;2023-03-31T11:32:28;13.43;;;3.50;;
22111;SDS011;11222;50.872;4.312;2023-03-31T11:43:21;12.75;;;3.35;;
22111;SDS011;11222;50.872;4.312;2023-03-31T11:48:46;16.15;;;3.63;;
22111;SDS011;11222;50.872;4.312;2023-03-31T11:54:15;12.13;;;3.60;;
22111;SDS011;11222;50.872;4.312;2023-03-31T11:57:02;13.88;;;3.33;;
22111;SDS011;11222;50.872;4.312;2023-03-31T11:59:34;10.60;;;3.38;;
22111;SDS011;11222;50.872;4.312;2023-03-31T12:02:14;12.45;;;3.20;;
22111;SDS011;11222;50.872;4.312;2023-03-31T12:04:48;9.45;;;2.88;;
22111;SDS011;11222;50.872;4.312;2023-03-31T12:07:22;12.50;;;3.13;;
22111;SDS011;11222;50.872;4.312;2023-03-31T12:10:10;14.95;;;3.25;;
22111;SDS011;11222;50.872;4.312;2023-03-31T12:12:54;13.32;;;3.03;;
22111;SDS011;11222;50.872;4.312;2023-03-31T12:15:26;14.35;;;3.55;;
22111;SDS011;11222;50.872;4.312;2023-03-31T12:18:10;6.93;;;2.40;;
22111;SDS011;11222;50.872;4.312;2023-03-31T12:20:54;10.68;;;2.83;;
22111;SDS011;11222;50.872;4.312;2023-03-31T12:23:23;12.77;;;3.22;;
22111;SDS011;11222;50.872;4.312;2023-03-31T12:28:47;10.77;;;2.77;;
22111;SDS011;11222;50.872;4.312;2023-03-31T12:31:18;12.15;;;3.17;;
22111;SDS011;11222;50.872;4.312;2023-03-31T12:33:55;14.77;;;3.28;;
22111;SDS011;11222;50.872;4.312;2023-03-31T12:41:43;11.30;;;2.50;;
22111;SDS011;11222;50.872;4.312;2023-03-31T12:45:17;10.52;;;3.00;;
22111;SDS011;11222;50.872;4.312;2023-03-31T12:56:06;7.20;;;2.13;;
22111;SDS011;11222;50.872;4.312;2023-03-31T13:06:11;6.13;;;1.88;;
22111;SDS011;11222;50.872;4.312;2023-03-31T13:08:56;7.57;;;2.08;;
22111;SDS011;11222;50.872;4.312;2023-03-31T13:14:03;4.70;;;1.55;;
22111;SDS011;11222;50.872;4.312;2023-03-31T13:16:36;5.97;;;1.80;;
22111;SDS011;11222;50.872;4.312;2023-03-31T13:19:02;4.43;;;1.80;;
22111;SDS011;11222;50.872;4.312;2023-03-31T13:21:28;2.83;;;1.40;;
22111;SDS011;11222;50.872;4.312;2023-03-31T13:23:57;4.65;;;1.35;;
22111;SDS011;11222;50.872;4.312;2023-03-31T13:34:25;2.47;;;1.70;;
22111;SDS011;11222;50.872;4.312;2023-03-31T13:37:02;1.88;;;1.20;;
22111;SDS011;11222;50.872;4.312;2023-03-31T13:43:11;2.33;;;1.20;;
22111;SDS011;11222;50.872;4.312;2023-03-31T14:09:11;3.95;;;1.48;;
22111;SDS011;11222;50.872;4.312;2023-03-31T14:11:53;2.40;;;1.20;;
22111;SDS011;11222;50.872;4.312;2023-03-31T14:14:18;3.22;;;1.20;;
22111;SDS011;11222;50.872;4.312;2023-03-31T14:16:48;3.25;;;1.40;;
22111;SDS011;11222;50.872;4.312;2023-03-31T14:30:26;2.42;;;1.40;;
22111;SDS011;11222;50.872;4.312;2023-03-31T14:35:43;1.77;;;1.40;;
22111;SDS011;11222;50.872;4.312;2023-03-31T14:38:18;3.38;;;1.48;;
22111;SDS011;11222;50.872;4.312;2023-03-31T14:40:46;2.55;;;1.10;;
22111;SDS011;11222;50.872;4.312;2023-03-31T14:43:22;1.85;;;1.20;;
22111;SDS011;11222;50.872;4.312;2023-03-31T14:46:00;1.75;;;1.27;;
22111;SDS011;11222;50.872;4.312;2023-03-31T14:48:28;4.15;;;1.42;;
22111;SDS011;11222;50.872;4.312;2023-03-31T14:50:57;2.83;;;1.50;;
22111;SDS011;11222;50.872;4.312;2023-03-31T14:53:25;2.05;;;1.30;;
22111;SDS011;11222;50.872;4.312;2023-03-31T14:55:54;1.98;;;1.23;;
22111;SDS011;11222;50.872;4.312;2023-03-31T15:00:55;2.55;;;1.45;;
22111;SDS011;11222;50.872;4.312;2023-03-31T15:03:22;1.90;;;1.70;;
22111;SDS011;11222;50.872;4.312;2023-03-31T15:05:50;4.32;;;1.48;;
22111;SDS011;11222;50.872;4.312;2023-03-31T15:08:22;3.55;;;2.30;;
22111;SDS011;11222;50.872;4.312;2023-03-31T15:10:50;5.57;;;2.30;;
22111;SDS011;11222;50.872;4.312;2023-03-31T15:13:23;3.25;;;1.77;;
22111;SDS011;11222;50.872;4.312;2023-03-31T15:15:53;5.63;;;2.60;;
22111;SDS011;11222;50.872;4.312;2023-03-31T15:18:19;3.42;;;1.35;;
22111;SDS011;11222;50.872;4.312;2023-03-31T15:20:45;4.72;;;2.20;;
22111;SDS011;11222;50.872;4.312;2023-03-31T15:23:18;2.75;;;1.48;;
22111;SDS011;11222;50.872;4.312;2023-03-31T15:25:57;5.15;;;2.42;;
22111;SDS011;11222;50.872;4.312;2023-03-31T15:28:30;9.75;;;3.97;;
22111;SDS011;11222;50.872;4.312;2023-03-31T15:31:03;3.25;;;1.17;;
22111;SDS011;11222;50.872;4.312;2023-03-31T15:33:32;4.63;;;1.88;;
22111;SDS011;11222;50.872;4.312;2023-03-31T15:36:00;2.42;;;1.63;;
22111;SDS011;11222;50.872;4.312;2023-03-31T15:38:29;5.47;;;2.75;;
22111;SDS011;11222;50.872;4.312;2023-03-31T15:40:57;2.58;;;1.35;;
22111;SDS011;11222;50.872;4.312;2023-03-31T15:43:31;5.20;;;1.80;;
22111;SDS011;11222;50.872;4.312;2023-03-31T15:46:10;6.82;;;1.90;;
22111;SDS011;11222;50.872;4.312;2023-03-31T15:48:56;2.70;;;1.52;;
22111;SDS011;11222;50.872;4.312;2023-03-31T15:51:32;4.18;;;1.92;;
22111;SDS011;11222;50.872;4.312;2023-03-31T15:54:00;3.33;;;1.98;;
22111;SDS011;11222;50.872;4.312;2023-03-31T15:56:30;4.28;;;1.60;;
22111;SDS011;11222;50.872;4.312;2023-03-31T15:59:02;3.80;;;2.03;;
22111;SDS011;11222;50.872;4.312;2023-03-31T16:01:33;8.68;;;2.17;;
22111;SDS011;11222;50.872;4.312;2023-03-31T16:04:11;6.30;;;2.55;;
22111;SDS011;11222;50.872;4.312;2023-03-31T16:09:08;32.30;;;3.22;;
22111;SDS011;11222;50.872;4.312;2023-03-31T16:11:41;6.47;;;2.00;;
22111;SDS011;11222;50.872;4.312;2023-03-31T16:14:12;9.83;;;2.67;;
22111;SDS011;11222;50.872;4.312;2023-03-31T16:16:49;6.82;;;2.10;;
22111;SDS011;11222;50.872;4.312;2023-03-31T16:19:18;9.13;;;2.25;;
22111;SDS011;11222;50.872;4.312;2023-03-31T16:21:49;9.15;;;2.53;;
22111;SDS011;11222;50.872;4.312;2023-03-31T16:24:19;10.98;;;2.22;;
22111;SDS011;11222;50.872;4.312;2023-03-31T16:26:47;13.15;;;2.67;;
22111;SDS011;11222;50.872;4.312;2023-03-31T16:29:20;11.82;;;3.05;;
22111;SDS011;11222;50.872;4.312;2023-03-31T16:31:46;6.55;;;2.33;;
22111;SDS011;11222;50.872;4.312;2023-03-31T16:34:12;7.55;;;2.40;;
22111;SDS011;11222;50.872;4.312;2023-03-31T16:36:38;9.23;;;2.50;;
22111;SDS011;11222;50.872;4.312;2023-03-31T16:39:04;8.93;;;2.17;;
22111;SDS011;11222;50.872;4.312;2023-03-31T16:41:31;9.25;;;2.53;;
22111;SDS011;11222;50.872;4.312;2023-03-31T16:43:58;7.60;;;2.58;;
22111;SDS011;11222;50.872;4.312;2023-03-31T16:46:24;11.10;;;2.45;;
22111;SDS011;11222;50.872;4.312;2023-03-31T16:48:50;12.38;;;3.08;;
22111;SDS011;11222;50.872;4.312;2023-03-31T16:51:17;10.25;;;2.88;;
22111;SDS011;11222;50.872;4.312;2023-03-31T16:53:43;9.98;;;2.42;;
22111;SDS011;11222;50.872;4.312;2023-03-31T16:56:10;10.02;;;2.80;;
22111;SDS011;11222;50.872;4.312;2023-03-31T16:58:37;8.82;;;2.78;;
22111;SDS011;11222;50.872;4.312;2023-03-31T17:01:04;8.45;;;2.38;;
22111;SDS011;11222;50.872;4.312;2023-03-31T17:03:31;8.68;;;2.40;;
22111;SDS011;11222;50.872;4.312;2023-03-31T17:06:02;10.75;;;2.65;;
22111;SDS011;11222;50.872;4.312;2023-03-31T17:08:30;8.57;;;2.40;;
22111;SDS011;11222;50.872;4.312;2023-03-31T17:11:00;6.93;;;1.95;;
22111;SDS011;11222;50.872;4.312;2023-03-31T17:13:28;10.52;;;2.90;;
22111;SDS011;11222;50.872;4.312;2023-03-31T17:15:56;6.85;;;2.85;;
22111;SDS011;11222;50.872;4.312;2023-03-31T17:18:23;13.25;;;3.03;;
22111;SDS011;11222;50.872;4.312;2023-03-31T17:20:49;8.57;;;2.80;;
22111;SDS011;11222;50.872;4.312;2023-03-31T17:23:17;8.82;;;2.63;;
22111;SDS011;11222;50.872;4.312;2023-03-31T17:25:51;8.32;;;2.50;;
22111;SDS011;11222;50.872;4.312;2023-03-31T17:28:17;10.18;;;2.50;;
22111;SDS011;11222;50.872;4.312;2023-03-31T17:30:43;11.05;;;2.83;;
22111;SDS011;11222;50.872;4.312;2023-03-31T17:33:12;10.05;;;2.58;;
22111;SDS011;11222;50.872;4.312;2023-03-31T17:35:39;9.88;;;2.53;;
22111;SDS011;11222;50.872;4.312;2023-03-31T17:38:06;10.43;;;2.60;;
22111;SDS011;11222;50.872;4.312;2023-03-31T17:40:33;12.27;;;3.72;;
22111;SDS011;11222;50.872;4.312;2023-03-31T17:43:00;6.55;;;2.70;;
22111;SDS011;11222;50.872;4.312;2023-03-31T17:45:27;16.50;;;3.78;;
22111;SDS011;11222;50.872;4.312;2023-03-31T17:47:53;23.67;;;4.53;;
22111;SDS011;11222;50.872;4.312;2023-03-31T17:50:20;13.23;;;5.00;;
22111;SDS011;11222;50.872;4.312;2023-03-31T17:52:46;18.20;;;4.63;;
22111;SDS011;11222;50.872;4.312;2023-03-31T17:55:12;18.05;;;3.80;;
22111;SDS011;11222;50.872;4.312;2023-03-31T17:57:38;18.60;;;4.07;;
22111;SDS011;11222;50.872;4.312;2023-03-31T18:00:07;13.70;;;3.88;;
22111;SDS011;11222;50.872;4.312;2023-03-31T18:02:37;23.23;;;5.13;;
22111;SDS011;11222;50.872;4.312;2023-03-31T18:05:04;19.77;;;5.40;;
22111;SDS011;11222;50.872;4.312;2023-03-31T18:07:32;17.92;;;3.92;;
22111;SDS011;11222;50.872;4.312;2023-03-31T18:09:58;19.05;;;4.15;;
22111;SDS011;11222;50.872;4.312;2023-03-31T18:12:24;16.35;;;3.67;;
22111;SDS011;11222;50.872;4.312;2023-03-31T18:14:52;15.27;;;4.45;;
22111;SDS011;11222;50.872;4.312;2023-03-31T18:17:19;16.58;;;3.83;;
22111;SDS011;11222;50.872;4.312;2023-03-31T18:19:45;21.55;;;3.92;;